createdAt,value
2022-08-16T00:00:04.441Z,983.51
2022-08-16T00:01:01.232Z,983.54
2022-08-16T00:02:00.265Z,983.52
2022-08-16T00:03:00.197Z,983.45
2022-08-16T00:04:00.255Z,983.47
2022-08-16T00:05:00.388Z,983.48
2022-08-16T00:06:00.182Z,983.50
2022-08-16T00:07:00.150Z,983.53
2022-08-16T00:08:00.149Z,983.52
2022-08-16T00:09:00.151Z,983.54
2022-08-16T00:10:00.263Z,983.57
2022-08-16T00:11:00.132Z,983.53
2022-08-16T00:12:00.098Z,983.55
2022-08-16T00:13:00.068Z,983.56
2022-08-16T00:14:00.096Z,983.56
2022-08-16T00:15:00.069Z,983.58
2022-08-16T00:16:00.112Z,983.53
2022-08-16T00:17:18.626Z,983.54
2022-08-16T00:18:01.099Z,983.50
2022-08-16T00:19:00.026Z,983.50
2022-08-16T00:20:00.078Z,983.53
2022-08-16T00:20:59.966Z,983.53
2022-08-16T00:22:03.201Z,983.53
2022-08-16T00:23:00.938Z,983.59
2022-08-16T00:23:59.986Z,983.56
2022-08-16T00:25:01.012Z,983.54
2022-08-16T00:26:35.154Z,983.54
2022-08-16T00:27:01.004Z,983.53
2022-08-16T00:27:59.924Z,983.53
2022-08-16T00:28:59.877Z,983.59
2022-08-16T00:30:08.989Z,983.58
2022-08-16T00:31:01.060Z,983.58
2022-08-16T00:32:05.750Z,983.55
2022-08-16T00:33:00.819Z,983.58
2022-08-16T00:33:59.804Z,983.55
2022-08-16T00:35:00.657Z,983.58
2022-08-16T00:36:00.314Z,983.57
2022-08-16T00:36:59.840Z,983.56
2022-08-16T00:37:59.743Z,983.59
2022-08-16T00:38:59.732Z,983.57
2022-08-16T00:39:59.802Z,983.55
2022-08-16T00:40:59.731Z,983.55
2022-08-16T00:41:59.772Z,983.58
2022-08-16T00:42:59.692Z,983.56
2022-08-16T00:43:59.662Z,983.54
2022-08-16T00:44:59.651Z,983.59
2022-08-16T00:46:00.645Z,983.56
2022-08-16T00:47:02.411Z,983.61
2022-08-16T00:48:00.639Z,983.61
2022-08-16T00:48:59.654Z,983.59
2022-08-16T00:49:59.645Z,983.59
2022-08-16T00:50:59.644Z,983.56
2022-08-16T00:51:59.571Z,983.58
2022-08-16T00:52:59.874Z,983.60
2022-08-16T00:53:59.548Z,983.53
2022-08-16T00:54:59.617Z,983.60
2022-08-16T00:55:59.593Z,983.59
2022-08-16T00:57:00.101Z,983.59
2022-08-16T00:58:00.799Z,983.61
2022-08-16T00:59:01.251Z,983.59
2022-08-16T00:59:59.732Z,983.58
2022-08-16T01:00:59.517Z,983.62
2022-08-16T01:01:59.456Z,983.62
2022-08-16T01:03:00.156Z,983.62
2022-08-16T01:03:59.399Z,983.63
2022-08-16T01:05:09.510Z,983.61
2022-08-16T01:06:00.379Z,983.64
2022-08-16T01:07:02.124Z,983.64
2022-08-16T01:07:59.730Z,983.67
2022-08-16T01:09:00.078Z,983.66
2022-08-16T01:09:59.335Z,983.71
2022-08-16T01:10:59.914Z,983.68
2022-08-16T01:11:59.325Z,983.70
2022-08-16T01:13:00.377Z,983.69
2022-08-16T01:13:59.351Z,983.74
2022-08-16T01:14:59.266Z,983.75
2022-08-16T01:15:59.334Z,983.73
2022-08-16T01:16:59.248Z,983.73
2022-08-16T01:17:59.326Z,983.73
2022-08-16T01:18:59.264Z,983.71
2022-08-16T01:19:59.223Z,983.75
2022-08-16T01:20:59.253Z,983.73
2022-08-16T01:22:47.606Z,983.75
2022-08-16T01:23:00.398Z,983.75
2022-08-16T01:24:02.097Z,983.74
2022-08-16T01:24:59.203Z,983.72
2022-08-16T01:26:00.284Z,983.73
2022-08-16T01:27:03.673Z,983.74
2022-08-16T01:27:59.105Z,983.76
2022-08-16T01:28:59.124Z,983.74
2022-08-16T01:29:59.894Z,983.70
2022-08-16T01:30:59.090Z,983.72
2022-08-16T01:31:59.131Z,983.75
2022-08-16T01:33:02.971Z,983.73
2022-08-16T01:34:00.050Z,983.75
2022-08-16T01:34:59.037Z,983.75
2022-08-16T01:35:59.020Z,983.72
2022-08-16T01:36:59.035Z,983.73
2022-08-16T01:37:58.971Z,983.73
2022-08-16T01:38:58.974Z,983.73
2022-08-16T01:39:59.032Z,983.74
2022-08-16T01:41:01.981Z,983.73
2022-08-16T01:41:58.980Z,983.76
2022-08-16T01:42:58.933Z,983.77
2022-08-16T01:44:01.231Z,983.83
2022-08-16T01:44:58.939Z,983.81
2022-08-16T01:45:58.858Z,983.81
2022-08-16T01:46:58.917Z,983.85
2022-08-16T01:47:58.868Z,983.77
2022-08-16T01:48:58.817Z,983.76
2022-08-16T01:50:43.049Z,983.78
2022-08-16T01:51:09.080Z,983.77
2022-08-16T01:51:59.807Z,983.76
2022-08-16T01:52:58.776Z,983.76
2022-08-16T01:53:58.758Z,983.78
2022-08-16T01:54:59.435Z,983.78
2022-08-16T01:55:58.806Z,983.78
2022-08-16T01:56:58.727Z,983.78
2022-08-16T01:57:58.697Z,983.73
2022-08-16T01:58:58.707Z,983.74
2022-08-16T01:59:58.699Z,983.77
2022-08-16T02:00:58.689Z,983.76
2022-08-16T02:01:59.853Z,983.75
2022-08-16T02:02:58.661Z,983.77
2022-08-16T02:04:11.111Z,983.76
2022-08-16T02:04:59.639Z,983.76
2022-08-16T02:05:58.596Z,983.76
2022-08-16T02:06:58.603Z,983.76
2022-08-16T02:07:58.567Z,983.75
2022-08-16T02:08:58.585Z,983.72
2022-08-16T02:09:59.621Z,983.69
2022-08-16T02:10:58.555Z,983.67
2022-08-16T02:11:58.565Z,983.70
2022-08-16T02:13:00.171Z,983.68
2022-08-16T02:13:58.509Z,983.71
2022-08-16T02:14:59.514Z,983.75
2022-08-16T02:15:58.478Z,983.71
2022-08-16T02:16:58.466Z,983.69
2022-08-16T02:17:58.438Z,983.73
2022-08-16T02:18:58.423Z,983.74
2022-08-16T02:20:00.656Z,983.71
2022-08-16T02:20:58.417Z,983.72
2022-08-16T02:22:07.634Z,983.68
2022-08-16T02:22:59.636Z,983.71
2022-08-16T02:23:58.439Z,983.73
2022-08-16T02:24:58.352Z,983.70
2022-08-16T02:25:59.997Z,983.72
2022-08-16T02:26:58.323Z,983.76
2022-08-16T02:27:58.302Z,983.78
2022-08-16T02:28:58.306Z,983.82
2022-08-16T02:30:05.314Z,983.77
2022-08-16T02:30:59.336Z,983.78
2022-08-16T02:32:04.045Z,983.80
2022-08-16T02:32:59.279Z,983.77
2022-08-16T02:33:58.259Z,983.77
2022-08-16T02:34:58.272Z,983.77
2022-08-16T02:35:59.985Z,983.76
2022-08-16T02:36:58.190Z,983.80
2022-08-16T02:38:01.827Z,983.78
2022-08-16T02:38:59.174Z,983.79
2022-08-16T02:39:58.173Z,983.82
2022-08-16T02:40:59.031Z,983.79
2022-08-16T02:41:58.118Z,983.80
2022-08-16T02:42:58.130Z,983.80
2022-08-16T02:43:58.098Z,983.80
2022-08-16T02:44:58.117Z,983.81
2022-08-16T02:45:59.080Z,983.81
2022-08-16T02:46:58.095Z,983.82
2022-08-16T02:48:01.840Z,983.80
2022-08-16T02:49:00.364Z,983.82
2022-08-16T02:50:52.722Z,983.80
2022-08-16T02:51:08.063Z,983.75
2022-08-16T02:51:58.987Z,983.78
2022-08-16T02:52:58.090Z,983.71
2022-08-16T02:53:57.975Z,983.75
2022-08-16T02:54:57.998Z,983.68
2022-08-16T02:55:57.965Z,983.64
2022-08-16T02:56:57.932Z,983.60
2022-08-16T02:57:57.940Z,983.60
2022-08-16T02:58:57.962Z,983.60
2022-08-16T02:59:57.926Z,983.58
2022-08-16T03:00:57.995Z,983.60
2022-08-16T03:01:57.990Z,983.61
2022-08-16T03:02:57.907Z,983.63
2022-08-16T03:04:28.910Z,983.60
2022-08-16T03:04:58.959Z,983.65
2022-08-16T03:05:57.832Z,983.65
2022-08-16T03:06:57.807Z,983.62
2022-08-16T03:07:57.841Z,983.63
2022-08-16T03:08:57.818Z,983.61
2022-08-16T03:10:00.490Z,983.58
2022-08-16T03:10:59.332Z,983.58
2022-08-16T03:11:57.770Z,983.54
2022-08-16T03:12:58.253Z,983.51
2022-08-16T03:13:57.740Z,983.56
2022-08-16T03:14:57.776Z,983.59
2022-08-16T03:15:57.717Z,983.61
2022-08-16T03:16:59.212Z,983.58
2022-08-16T03:17:57.672Z,983.56
2022-08-16T03:18:57.667Z,983.53
2022-08-16T03:20:00.410Z,983.55
2022-08-16T03:20:58.622Z,983.52
2022-08-16T03:21:57.634Z,983.54
2022-08-16T03:22:57.606Z,983.53
2022-08-16T03:23:57.604Z,983.51
2022-08-16T03:24:57.876Z,983.54
2022-08-16T03:25:57.608Z,983.50
2022-08-16T03:26:58.034Z,983.50
2022-08-16T03:27:57.561Z,983.52
2022-08-16T03:28:57.569Z,983.52
2022-08-16T03:29:57.535Z,983.54
2022-08-16T03:30:57.542Z,983.48
2022-08-16T03:31:57.519Z,983.52
2022-08-16T03:32:57.524Z,983.55
2022-08-16T03:33:57.449Z,983.55
2022-08-16T03:34:57.479Z,983.53
2022-08-16T03:35:57.454Z,983.54
2022-08-16T03:36:57.430Z,983.53
2022-08-16T03:38:03.306Z,983.53
2022-08-16T03:38:58.442Z,983.53
2022-08-16T03:40:03.057Z,983.50
2022-08-16T03:40:58.376Z,983.48
2022-08-16T03:41:59.838Z,983.55
2022-08-16T03:43:19.055Z,983.50
2022-08-16T03:43:58.323Z,983.53
2022-08-16T03:45:03.331Z,983.50
2022-08-16T03:45:58.313Z,983.49
2022-08-16T03:46:58.319Z,983.47
2022-08-16T03:47:59.755Z,983.43
2022-08-16T03:48:57.286Z,983.45
2022-08-16T03:49:57.271Z,983.45
2022-08-16T03:50:59.906Z,983.43
2022-08-16T03:51:57.244Z,983.44
2022-08-16T03:53:03.153Z,983.44
2022-08-16T03:54:01.239Z,983.46
2022-08-16T03:54:58.266Z,983.46
2022-08-16T03:55:57.229Z,983.49
2022-08-16T03:56:58.595Z,983.45
2022-08-16T03:57:57.193Z,983.51
2022-08-16T03:58:57.202Z,983.50
2022-08-16T03:59:57.132Z,983.50
2022-08-16T04:00:59.433Z,983.49
2022-08-16T04:01:57.099Z,983.50
2022-08-16T04:02:57.110Z,983.50
2022-08-16T04:03:57.142Z,983.53
2022-08-16T04:04:57.069Z,983.50
2022-08-16T04:05:57.048Z,983.56
2022-08-16T04:06:57.040Z,983.52
2022-08-16T04:07:57.032Z,983.57
2022-08-16T04:08:57.047Z,983.52
2022-08-16T04:09:57.035Z,983.50
2022-08-16T04:10:57.980Z,983.50
2022-08-16T04:11:57.042Z,983.50
2022-08-16T04:13:01.963Z,983.46
2022-08-16T04:14:01.492Z,983.42
2022-08-16T04:14:58.351Z,983.47
2022-08-16T04:15:56.960Z,983.45
2022-08-16T04:16:56.914Z,983.47
2022-08-16T04:17:56.943Z,983.51
2022-08-16T04:19:02.105Z,983.47
2022-08-16T04:19:58.253Z,983.50
2022-08-16T04:20:56.887Z,983.50
2022-08-16T04:21:56.884Z,983.52
2022-08-16T04:22:56.825Z,983.51
2022-08-16T04:23:56.814Z,983.51
2022-08-16T04:24:59.450Z,983.52
2022-08-16T04:25:56.855Z,983.54
2022-08-16T04:26:57.783Z,983.60
2022-08-16T04:27:56.786Z,983.59
2022-08-16T04:29:15.192Z,983.62
2022-08-16T04:30:03.344Z,983.66
2022-08-16T04:30:57.757Z,983.65
2022-08-16T04:31:57.984Z,983.61
2022-08-16T04:32:56.712Z,983.65
2022-08-16T04:33:56.684Z,983.65
2022-08-16T04:34:56.691Z,983.70
2022-08-16T04:35:56.673Z,983.73
2022-08-16T04:36:56.952Z,983.73
2022-08-16T04:37:56.654Z,983.75
2022-08-16T04:38:56.637Z,983.77
2022-08-16T04:39:57.263Z,983.79
2022-08-16T04:40:56.602Z,983.77
2022-08-16T04:41:57.400Z,983.76
2022-08-16T04:42:56.612Z,983.75
2022-08-16T04:43:56.680Z,983.73
2022-08-16T04:44:56.562Z,983.76
2022-08-16T04:46:00.882Z,983.71
2022-08-16T04:47:02.281Z,983.74
2022-08-16T04:47:57.539Z,983.78
2022-08-16T04:48:56.509Z,983.76
2022-08-16T04:49:56.545Z,983.81
2022-08-16T04:50:56.471Z,983.78
2022-08-16T04:51:56.567Z,983.76
2022-08-16T04:52:56.450Z,983.73
2022-08-16T04:53:56.480Z,983.75
2022-08-16T04:54:56.418Z,983.71
2022-08-16T04:55:56.409Z,983.76
2022-08-16T04:56:56.408Z,983.75
2022-08-16T04:57:56.487Z,983.76
2022-08-16T04:58:57.682Z,983.77
2022-08-16T04:59:56.571Z,983.77
2022-08-16T05:00:56.396Z,983.77
2022-08-16T05:01:58.794Z,983.77
2022-08-16T05:02:58.819Z,983.82
2022-08-16T05:04:00.275Z,983.80
2022-08-16T05:04:57.296Z,983.82
2022-08-16T05:05:59.752Z,983.85
2022-08-16T05:06:57.285Z,983.85
2022-08-16T05:07:59.507Z,983.87
2022-08-16T05:08:56.399Z,983.89
2022-08-16T05:09:56.256Z,983.92
2022-08-16T05:11:01.351Z,983.96
2022-08-16T05:11:57.656Z,984.01
2022-08-16T05:12:56.697Z,983.99
2022-08-16T05:13:56.186Z,984.00
2022-08-16T05:15:01.764Z,983.98
2022-08-16T05:15:57.845Z,983.99
2022-08-16T05:16:56.298Z,984.04
2022-08-16T05:17:58.749Z,983.98
2022-08-16T05:18:56.832Z,984.02
2022-08-16T05:19:57.197Z,984.03
2022-08-16T05:21:01.499Z,984.06
2022-08-16T05:21:57.083Z,984.06
2022-08-16T05:22:56.120Z,984.08
2022-08-16T05:23:58.598Z,984.03
2022-08-16T05:24:56.052Z,984.05
2022-08-16T05:25:56.044Z,984.04
2022-08-16T05:26:56.754Z,984.06
2022-08-16T05:27:56.560Z,984.07
2022-08-16T05:28:56.126Z,984.11
2022-08-16T05:30:00.907Z,984.10
2022-08-16T05:30:56.983Z,984.12
2022-08-16T05:31:55.965Z,984.11
2022-08-16T05:32:56.021Z,984.12
2022-08-16T05:33:55.921Z,984.18
2022-08-16T05:34:55.951Z,984.20
2022-08-16T05:35:56.101Z,984.18
2022-08-16T05:36:55.920Z,984.13
2022-08-16T05:37:55.920Z,984.12
2022-08-16T05:38:55.942Z,984.15
2022-08-16T05:39:55.892Z,984.14
2022-08-16T05:40:59.841Z,984.09
2022-08-16T05:41:55.935Z,984.15
2022-08-16T05:42:56.240Z,984.16
2022-08-16T05:43:58.978Z,984.14
2022-08-16T05:44:55.816Z,984.17
2022-08-16T05:45:55.777Z,984.21
2022-08-16T05:46:56.009Z,984.18
2022-08-16T05:48:00.389Z,984.20
2022-08-16T05:49:01.688Z,984.21
2022-08-16T05:49:56.749Z,984.20
2022-08-16T05:50:55.696Z,984.24
2022-08-16T05:51:55.789Z,984.22
2022-08-16T05:52:55.668Z,984.24
2022-08-16T05:53:55.679Z,984.22
2022-08-16T05:55:01.634Z,984.24
2022-08-16T05:55:56.673Z,984.27
2022-08-16T05:56:55.666Z,984.23
2022-08-16T05:57:55.610Z,984.24
2022-08-16T05:58:55.697Z,984.23
2022-08-16T05:59:59.881Z,984.23
2022-08-16T06:00:56.584Z,984.22
2022-08-16T06:01:55.609Z,984.18
2022-08-16T06:02:55.536Z,984.16
2022-08-16T06:03:55.545Z,984.19
2022-08-16T06:04:55.559Z,984.20
2022-08-16T06:05:55.518Z,984.19
2022-08-16T06:06:56.788Z,984.23
2022-08-16T06:07:58.307Z,984.24
2022-08-16T06:08:55.483Z,984.19
2022-08-16T06:09:55.484Z,984.24
2022-08-16T06:11:09.829Z,984.18
2022-08-16T06:11:56.434Z,984.16
2022-08-16T06:12:55.979Z,984.19
2022-08-16T06:13:55.538Z,984.22
2022-08-16T06:14:55.391Z,984.22
2022-08-16T06:15:55.374Z,984.22
2022-08-16T06:16:55.372Z,984.26
2022-08-16T06:17:55.365Z,984.23
2022-08-16T06:18:55.367Z,984.24
2022-08-16T06:19:55.342Z,984.24
2022-08-16T06:20:56.169Z,984.23
2022-08-16T06:21:56.138Z,984.21
2022-08-16T06:22:57.502Z,984.22
2022-08-16T06:23:55.309Z,984.16
2022-08-16T06:24:55.994Z,984.14
2022-08-16T06:25:55.269Z,984.18
2022-08-16T06:26:57.423Z,984.15
2022-08-16T06:27:57.443Z,984.18
2022-08-16T06:28:55.242Z,984.17
2022-08-16T06:29:55.191Z,984.18
2022-08-16T06:30:55.181Z,984.23
2022-08-16T06:31:55.181Z,984.21
2022-08-16T06:32:55.187Z,984.23
2022-08-16T06:33:55.185Z,984.24
2022-08-16T06:35:02.047Z,984.23
2022-08-16T06:35:59.734Z,984.26
2022-08-16T06:36:59.476Z,984.23
2022-08-16T06:37:55.100Z,984.25
2022-08-16T06:38:56.162Z,984.24
2022-08-16T06:39:55.106Z,984.20
2022-08-16T06:40:55.050Z,984.22
2022-08-16T06:41:55.103Z,984.21
2022-08-16T06:42:57.452Z,984.21
2022-08-16T06:43:55.063Z,984.25
2022-08-16T06:44:55.008Z,984.20
2022-08-16T06:45:55.104Z,984.20
2022-08-16T06:46:54.990Z,984.20
2022-08-16T06:47:56.569Z,984.16
2022-08-16T06:48:54.957Z,984.15
2022-08-16T06:49:54.945Z,984.18
2022-08-16T06:50:54.936Z,984.17
2022-08-16T06:51:54.943Z,984.18
2022-08-16T06:53:00.697Z,984.18
2022-08-16T06:53:55.878Z,984.20
2022-08-16T06:54:54.875Z,984.21
2022-08-16T06:55:54.877Z,984.21
2022-08-16T06:56:55.322Z,984.24
2022-08-16T06:57:54.837Z,984.23
2022-08-16T06:58:54.823Z,984.24
2022-08-16T06:59:58.351Z,984.23
2022-08-16T07:00:54.841Z,984.26
2022-08-16T07:01:55.439Z,984.26
2022-08-16T07:02:55.203Z,984.22
2022-08-16T07:03:57.497Z,984.24
2022-08-16T07:04:54.745Z,984.24
2022-08-16T07:05:54.737Z,984.29
2022-08-16T07:06:54.735Z,984.26
2022-08-16T07:07:55.129Z,984.27
2022-08-16T07:08:54.691Z,984.30
2022-08-16T07:09:54.724Z,984.32
2022-08-16T07:10:54.683Z,984.31
2022-08-16T07:11:54.688Z,984.31
2022-08-16T07:13:04.105Z,984.31
2022-08-16T07:14:22.995Z,984.35
2022-08-16T07:14:59.903Z,984.33
2022-08-16T07:15:55.645Z,984.40
2022-08-16T07:16:54.634Z,984.38
2022-08-16T07:17:54.575Z,984.44
2022-08-16T07:19:01.612Z,984.45
2022-08-16T07:20:03.778Z,984.46
2022-08-16T07:20:59.952Z,984.47
2022-08-16T07:21:59.639Z,984.43
2022-08-16T07:22:58.860Z,984.45
2022-08-16T07:23:57.912Z,984.42
2022-08-16T07:24:55.515Z,984.43
2022-08-16T07:25:54.470Z,984.42
2022-08-16T07:26:54.482Z,984.44
2022-08-16T07:27:54.443Z,984.43
2022-08-16T07:28:54.432Z,984.44
2022-08-16T07:29:55.505Z,984.46
2022-08-16T07:30:54.431Z,984.44
2022-08-16T07:31:54.452Z,984.42
2022-08-16T07:32:54.391Z,984.41
2022-08-16T07:33:54.893Z,984.41
2022-08-16T07:34:54.350Z,984.36
2022-08-16T07:35:54.358Z,984.34
2022-08-16T07:36:58.207Z,984.29
2022-08-16T07:37:54.350Z,984.31
2022-08-16T07:38:54.324Z,984.31
2022-08-16T07:39:54.651Z,984.29
2022-08-16T07:41:02.118Z,984.27
2022-08-16T07:41:55.319Z,984.24
2022-08-16T07:42:54.259Z,984.30
2022-08-16T07:43:54.283Z,984.26
2022-08-16T07:44:54.272Z,984.26
2022-08-16T07:45:54.292Z,984.26
2022-08-16T07:46:55.620Z,984.27
2022-08-16T07:47:54.220Z,984.27
2022-08-16T07:48:55.180Z,984.28
2022-08-16T07:49:58.137Z,984.27
2022-08-16T07:50:55.809Z,984.30
2022-08-16T07:51:56.037Z,984.29
2022-08-16T07:52:54.119Z,984.26
2022-08-16T07:54:09.442Z,984.28
2022-08-16T07:54:55.320Z,984.32
2022-08-16T07:55:54.085Z,984.30
2022-08-16T07:56:54.213Z,984.28
2022-08-16T07:57:59.765Z,984.30
2022-08-16T07:58:55.518Z,984.30
2022-08-16T07:59:57.148Z,984.32
2022-08-16T08:00:54.084Z,984.33
2022-08-16T08:01:54.038Z,984.31
2022-08-16T08:02:53.995Z,984.32
2022-08-16T08:03:54.005Z,984.34
2022-08-16T08:04:53.984Z,984.33
2022-08-16T08:05:54.033Z,984.33
2022-08-16T08:06:53.952Z,984.31
2022-08-16T08:07:53.987Z,984.30
2022-08-16T08:08:57.530Z,984.29
2022-08-16T08:09:54.934Z,984.28
2022-08-16T08:10:53.908Z,984.31
2022-08-16T08:11:59.821Z,984.31
2022-08-16T08:12:55.074Z,984.34
2022-08-16T08:13:53.972Z,984.35
2022-08-16T08:14:53.937Z,984.38
2022-08-16T08:15:53.841Z,984.37
2022-08-16T08:16:53.843Z,984.43
2022-08-16T08:17:53.802Z,984.40
2022-08-16T08:18:56.117Z,984.41
2022-08-16T08:19:54.793Z,984.45
2022-08-16T08:20:58.897Z,984.42
2022-08-16T08:22:01.393Z,984.47
2022-08-16T08:23:00.804Z,984.45
2022-08-16T08:23:54.760Z,984.50
2022-08-16T08:24:53.761Z,984.51
2022-08-16T08:25:55.845Z,984.49
2022-08-16T08:26:53.724Z,984.53
2022-08-16T08:27:57.478Z,984.53
2022-08-16T08:28:53.663Z,984.55
2022-08-16T08:30:49.016Z,984.52
2022-08-16T08:31:00.622Z,984.54
2022-08-16T08:31:54.632Z,984.51
2022-08-16T08:33:00.020Z,984.49
2022-08-16T08:33:54.648Z,984.53
2022-08-16T08:34:53.596Z,984.56
2022-08-16T08:35:53.605Z,984.57
2022-08-16T08:36:54.488Z,984.57
2022-08-16T08:37:55.103Z,984.54
2022-08-16T08:38:53.547Z,984.55
2022-08-16T08:39:55.248Z,984.56
2022-08-16T08:40:53.510Z,984.57
2022-08-16T08:41:53.553Z,984.57
2022-08-16T08:42:57.389Z,984.58
2022-08-16T08:43:54.536Z,984.61
2022-08-16T08:44:53.472Z,984.59
2022-08-16T08:45:53.759Z,984.63
2022-08-16T08:47:00.671Z,984.57
2022-08-16T08:47:58.616Z,984.57
2022-08-16T08:48:59.607Z,984.58
2022-08-16T08:49:55.554Z,984.58
2022-08-16T08:50:53.397Z,984.54
2022-08-16T08:51:53.408Z,984.56
2022-08-16T08:52:53.399Z,984.55
2022-08-16T08:53:57.903Z,984.57
2022-08-16T08:54:54.340Z,984.54
2022-08-16T08:55:59.007Z,984.56
2022-08-16T08:56:54.385Z,984.56
2022-08-16T08:57:53.321Z,984.57
2022-08-16T08:58:54.941Z,984.61
2022-08-16T08:59:54.366Z,984.59
2022-08-16T09:00:53.253Z,984.61
2022-08-16T09:01:57.853Z,984.58
2022-08-16T09:02:54.443Z,984.58
2022-08-16T09:03:53.268Z,984.62
2022-08-16T09:04:53.253Z,984.68
2022-08-16T09:05:53.183Z,984.70
2022-08-16T09:06:53.244Z,984.69
2022-08-16T09:08:00.551Z,984.70
2022-08-16T09:08:54.183Z,984.66
2022-08-16T09:10:06.176Z,984.69
2022-08-16T09:10:58.906Z,984.69
2022-08-16T09:12:04.431Z,984.63
2022-08-16T09:12:54.163Z,984.70
2022-08-16T09:13:53.106Z,984.63
2022-08-16T09:14:53.171Z,984.63
2022-08-16T09:15:53.066Z,984.58
2022-08-16T09:17:01.461Z,984.61
2022-08-16T09:17:54.948Z,984.64
2022-08-16T09:18:56.850Z,984.66
2022-08-16T09:19:55.694Z,984.68
2022-08-16T09:20:59.374Z,984.72
2022-08-16T09:21:56.171Z,984.70
2022-08-16T09:22:53.200Z,984.71
2022-08-16T09:23:52.983Z,984.65
2022-08-16T09:24:58.163Z,984.70
2022-08-16T09:25:53.959Z,984.69
2022-08-16T09:26:52.946Z,984.64
2022-08-16T09:27:56.772Z,984.64
2022-08-16T09:29:15.314Z,984.64
2022-08-16T09:30:00.083Z,984.63
2022-08-16T09:30:53.871Z,984.66
2022-08-16T09:31:53.648Z,984.64
2022-08-16T09:32:52.841Z,984.61
2022-08-16T09:33:52.849Z,984.65
2022-08-16T09:34:52.821Z,984.68
2022-08-16T09:35:53.326Z,984.65
2022-08-16T09:36:54.582Z,984.65
2022-08-16T09:38:00.471Z,984.65
2022-08-16T09:38:53.788Z,984.64
2022-08-16T09:39:53.860Z,984.65
2022-08-16T09:40:53.236Z,984.60
2022-08-16T09:41:53.449Z,984.65
2022-08-16T09:42:56.624Z,984.60
2022-08-16T09:44:00.702Z,984.64
2022-08-16T09:45:10.545Z,984.61
2022-08-16T09:45:54.475Z,984.63
2022-08-16T09:46:57.513Z,984.59
2022-08-16T09:47:57.094Z,984.55
2022-08-16T09:48:52.664Z,984.54
2022-08-16T09:49:53.317Z,984.51
2022-08-16T09:50:52.618Z,984.50
2022-08-16T09:51:52.617Z,984.49
2022-08-16T09:52:52.587Z,984.50
2022-08-16T09:53:53.825Z,984.45
2022-08-16T09:54:52.598Z,984.47
2022-08-16T09:55:52.557Z,984.50
2022-08-16T09:56:56.485Z,984.54
2022-08-16T09:57:53.126Z,984.50
2022-08-16T09:59:05.701Z,984.53
2022-08-16T09:59:56.096Z,984.49
2022-08-16T10:00:52.498Z,984.48
2022-08-16T10:01:52.478Z,984.49
2022-08-16T10:02:52.475Z,984.47
2022-08-16T10:04:01.944Z,984.47
2022-08-16T10:04:55.074Z,984.45
2022-08-16T10:05:52.423Z,984.48
2022-08-16T10:06:52.469Z,984.43
2022-08-16T10:07:55.974Z,984.45
2022-08-16T10:09:04.399Z,984.44
2022-08-16T10:09:54.834Z,984.41
2022-08-16T10:10:52.358Z,984.52
2022-08-16T10:11:52.362Z,984.52
2022-08-16T10:12:55.701Z,984.49
2022-08-16T10:13:52.338Z,984.48
2022-08-16T10:14:52.321Z,984.50
2022-08-16T10:15:55.212Z,984.47
2022-08-16T10:16:57.489Z,984.48
2022-08-16T10:18:01.562Z,984.49
2022-08-16T10:19:06.695Z,984.48
2022-08-16T10:19:53.252Z,984.49
2022-08-16T10:20:52.250Z,984.47
2022-08-16T10:21:56.042Z,984.47
2022-08-16T10:22:58.775Z,984.48
2022-08-16T10:23:53.694Z,984.49
2022-08-16T10:24:55.803Z,984.45
2022-08-16T10:27:16.312Z,984.47
2022-08-16T10:27:20.323Z,984.43
2022-08-16T10:27:56.888Z,984.43
2022-08-16T10:28:53.161Z,984.42
2022-08-16T10:30:00.359Z,984.41
2022-08-16T10:30:56.310Z,984.42
2022-08-16T10:31:53.987Z,984.43
2022-08-16T10:32:52.111Z,984.45
2022-08-16T10:33:52.105Z,984.43
2022-08-16T10:34:52.365Z,984.48
2022-08-16T10:35:52.474Z,984.40
2022-08-16T10:36:54.294Z,984.43
2022-08-16T10:37:52.294Z,984.44
2022-08-16T10:38:52.187Z,984.45
2022-08-16T10:39:52.174Z,984.44
2022-08-16T10:40:52.026Z,984.45
2022-08-16T10:41:51.960Z,984.46
2022-08-16T10:42:51.976Z,984.47
2022-08-16T10:43:52.151Z,984.49
2022-08-16T10:44:54.028Z,984.51
2022-08-16T10:46:00.555Z,984.45
2022-08-16T10:46:53.004Z,984.45
2022-08-16T10:48:02.710Z,984.45
2022-08-16T10:48:52.949Z,984.45
2022-08-16T10:49:51.931Z,984.38
2022-08-16T10:50:51.873Z,984.41
2022-08-16T10:52:01.528Z,984.38
2022-08-16T10:52:56.848Z,984.36
2022-08-16T10:53:52.830Z,984.40
2022-08-16T10:54:59.418Z,984.40
2022-08-16T10:55:57.797Z,984.34
2022-08-16T10:56:56.803Z,984.35
2022-08-16T10:57:51.768Z,984.33
2022-08-16T10:58:51.751Z,984.33
2022-08-16T10:59:58.249Z,984.35
2022-08-16T11:00:57.271Z,984.37
2022-08-16T11:02:59.696Z,984.33
2022-08-16T11:03:56.969Z,984.35
2022-08-16T11:05:09.024Z,984.40
2022-08-16T11:06:00.096Z,984.40
2022-08-16T11:07:08.753Z,984.37
2022-08-16T11:07:53.783Z,984.38
2022-08-16T11:09:20.847Z,984.37
2022-08-16T11:09:52.643Z,984.37
2022-08-16T11:11:04.972Z,984.39
2022-08-16T11:12:14.198Z,984.40
2022-08-16T11:12:52.944Z,984.41
2022-08-16T11:14:00.019Z,984.42
2022-08-16T11:15:55.430Z,984.39
2022-08-16T11:17:10.926Z,984.37
2022-08-16T11:18:48.238Z,984.41
2022-08-16T11:19:06.088Z,984.37
2022-08-16T11:20:52.479Z,984.41
2022-08-16T11:22:52.450Z,984.34
2022-08-16T11:23:57.967Z,984.29
2022-08-16T11:26:10.408Z,984.31
2022-08-16T11:27:18.697Z,984.33
2022-08-16T11:27:52.397Z,984.29
2022-08-16T11:29:52.485Z,984.31
2022-08-16T11:30:57.319Z,984.30
2022-08-16T11:31:54.026Z,984.31
2022-08-16T11:32:51.336Z,984.31
2022-08-16T11:33:52.767Z,984.30
2022-08-16T11:35:10.645Z,984.32
2022-08-16T11:36:53.874Z,984.30
2022-08-16T11:38:47.121Z,984.29
2022-08-16T11:38:57.593Z,984.29
2022-08-16T11:39:59.653Z,984.31
2022-08-16T11:40:53.138Z,984.31
2022-08-16T11:41:53.125Z,984.27
2022-08-16T11:42:51.194Z,984.28
2022-08-16T11:43:51.409Z,984.25
2022-08-16T11:44:56.175Z,984.24
2022-08-16T11:45:54.280Z,984.20
2022-08-16T11:46:51.143Z,984.17
2022-08-16T11:47:51.197Z,984.20
2022-08-16T11:48:51.114Z,984.19
2022-08-16T11:49:51.099Z,984.20
2022-08-16T11:50:51.145Z,984.21
2022-08-16T11:51:51.102Z,984.22
2022-08-16T11:52:51.072Z,984.21
2022-08-16T11:53:51.796Z,984.23
2022-08-16T11:54:57.061Z,984.25
2022-08-16T11:55:54.590Z,984.23
2022-08-16T11:56:52.476Z,984.23
2022-08-16T11:57:56.343Z,984.20
2022-08-16T11:58:56.925Z,984.24
2022-08-16T11:59:51.970Z,984.24
2022-08-16T12:00:52.888Z,984.26
2022-08-16T12:01:59.085Z,984.25
2022-08-16T12:02:51.981Z,984.22
2022-08-16T12:03:50.975Z,984.27
2022-08-16T12:04:51.783Z,984.25
2022-08-16T12:05:51.999Z,984.18
2022-08-16T12:06:53.549Z,984.22
2022-08-16T12:07:50.896Z,984.23
2022-08-16T12:08:51.002Z,984.22
2022-08-16T12:09:50.859Z,984.16
2022-08-16T12:10:50.893Z,984.15
2022-08-16T12:11:52.770Z,984.14
2022-08-16T12:12:50.868Z,984.12
2022-08-16T12:13:50.800Z,984.11
2022-08-16T12:14:59.218Z,984.12
2022-08-16T12:15:51.786Z,984.13
2022-08-16T12:16:55.678Z,984.15
2022-08-16T12:17:51.979Z,984.13
2022-08-16T12:18:50.761Z,984.19
2022-08-16T12:19:50.728Z,984.12
2022-08-16T12:20:50.780Z,984.13
2022-08-16T12:21:58.950Z,984.15
2022-08-16T12:22:51.695Z,984.15
2022-08-16T12:23:50.687Z,984.17
2022-08-16T12:24:52.052Z,984.15
2022-08-16T12:25:51.018Z,984.14
2022-08-16T12:26:50.656Z,984.14
2022-08-16T12:27:50.655Z,984.14
2022-08-16T12:28:54.895Z,984.18
2022-08-16T12:29:51.645Z,984.17
2022-08-16T12:30:50.637Z,984.15
2022-08-16T12:32:01.353Z,984.14
2022-08-16T12:32:53.155Z,984.10
2022-08-16T12:33:50.680Z,984.08
2022-08-16T12:34:53.091Z,984.09